createdAt,value
2023-05-22T00:00:44.786Z,20.04
2023-05-22T00:01:44.777Z,19.89
2023-05-22T00:02:44.855Z,19.89
2023-05-22T00:03:44.779Z,19.91
2023-05-22T00:04:44.811Z,19.94
2023-05-22T00:05:44.766Z,19.89
2023-05-22T00:06:44.762Z,19.82
2023-05-22T00:07:44.759Z,19.95
2023-05-22T00:08:44.753Z,19.88
2023-05-22T00:09:44.756Z,19.86
2023-05-22T00:10:44.754Z,19.89
2023-05-22T00:11:44.746Z,19.71
2023-05-22T00:12:44.754Z,19.82
2023-05-22T00:13:44.741Z,19.70
2023-05-22T00:14:44.756Z,19.79
2023-05-22T00:15:44.735Z,19.85
2023-05-22T00:16:44.763Z,19.70
2023-05-22T00:17:44.760Z,19.67
2023-05-22T00:18:44.820Z,19.70
2023-05-22T00:19:44.722Z,19.74
2023-05-22T00:20:44.718Z,19.67
2023-05-22T00:21:44.722Z,19.66
2023-05-22T00:22:44.718Z,19.66
2023-05-22T00:23:44.715Z,19.67
2023-05-22T00:24:44.710Z,19.73
2023-05-22T00:25:44.712Z,19.69
2023-05-22T00:26:44.723Z,19.71
2023-05-22T00:27:44.727Z,19.66
2023-05-22T00:28:44.694Z,19.58
2023-05-22T00:29:44.693Z,19.52
2023-05-22T00:30:44.719Z,19.47
2023-05-22T00:31:44.689Z,19.56
2023-05-22T00:32:44.765Z,19.54
2023-05-22T00:33:44.699Z,19.49
2023-05-22T00:34:44.803Z,19.52
2023-05-22T00:35:44.686Z,19.48
2023-05-22T00:36:44.682Z,19.49
2023-05-22T00:37:44.671Z,19.49
2023-05-22T00:38:44.672Z,19.49
2023-05-22T00:39:44.664Z,19.52
2023-05-22T00:40:44.660Z,19.44
2023-05-22T00:41:44.688Z,19.49
2023-05-22T00:42:44.658Z,19.41
2023-05-22T00:43:44.651Z,19.40
2023-05-22T00:44:44.656Z,19.41
2023-05-22T00:45:44.735Z,19.39
2023-05-22T00:46:44.713Z,19.36
2023-05-22T00:47:44.688Z,19.30
2023-05-22T00:48:44.639Z,19.36
2023-05-22T00:49:44.635Z,19.33
2023-05-22T00:50:44.637Z,19.29
2023-05-22T00:51:44.626Z,19.36
2023-05-22T00:52:44.625Z,19.22
2023-05-22T00:53:44.622Z,19.24
2023-05-22T00:54:44.628Z,19.16
2023-05-22T00:55:44.615Z,19.27
2023-05-22T00:56:44.612Z,19.26
2023-05-22T00:57:44.612Z,19.21
2023-05-22T00:58:44.611Z,19.18
2023-05-22T00:59:44.612Z,19.21
2023-05-22T01:00:44.594Z,19.14
2023-05-22T01:01:44.665Z,19.12
2023-05-22T01:02:44.688Z,19.12
2023-05-22T01:03:44.748Z,19.11
2023-05-22T01:04:44.584Z,19.09
2023-05-22T01:05:44.579Z,19.11
2023-05-22T01:06:44.576Z,19.02
2023-05-22T01:07:44.574Z,19.00
2023-05-22T01:08:44.587Z,19.00
2023-05-22T01:09:44.569Z,18.99
2023-05-22T01:10:44.561Z,18.99
2023-05-22T01:11:44.582Z,18.93
2023-05-22T01:12:44.556Z,18.95
2023-05-22T01:13:44.553Z,18.92
2023-05-22T01:14:44.552Z,19.07
2023-05-22T01:15:44.542Z,18.90
2023-05-22T01:16:44.622Z,18.93
2023-05-22T01:17:44.614Z,18.93
2023-05-22T01:18:44.566Z,18.99
2023-05-22T01:19:44.532Z,18.99
2023-05-22T01:20:45.317Z,18.98
2023-05-22T01:21:44.531Z,18.81
2023-05-22T01:22:44.520Z,18.93
2023-05-22T01:23:44.523Z,18.86
2023-05-22T01:24:44.512Z,18.89
2023-05-22T01:25:44.509Z,18.95
2023-05-22T01:26:44.509Z,18.88
2023-05-22T01:27:44.499Z,18.86
2023-05-22T01:28:44.500Z,18.80
2023-05-22T01:29:44.512Z,18.81
2023-05-22T01:30:44.493Z,18.73
2023-05-22T01:31:44.486Z,18.74
2023-05-22T01:32:44.550Z,18.66
2023-05-22T01:33:44.589Z,18.62
2023-05-22T01:34:44.475Z,18.62
2023-05-22T01:35:44.472Z,18.58
2023-05-22T01:36:44.473Z,18.62
2023-05-22T01:37:44.464Z,18.52
2023-05-22T01:38:44.464Z,18.55
2023-05-22T01:39:44.464Z,18.53
2023-05-22T01:40:44.457Z,18.49
2023-05-22T01:41:44.451Z,18.60
2023-05-22T01:42:44.444Z,18.62
2023-05-22T01:43:44.454Z,18.60
2023-05-22T01:44:44.439Z,18.50
2023-05-22T01:45:44.469Z,18.43
2023-05-22T01:46:44.448Z,18.31
2023-05-22T01:47:44.462Z,18.37
2023-05-22T01:48:44.498Z,18.34
2023-05-22T01:49:44.430Z,18.33
2023-05-22T01:50:44.416Z,18.37
2023-05-22T01:51:44.417Z,18.33
2023-05-22T01:52:44.428Z,18.40
2023-05-22T01:53:44.420Z,18.31
2023-05-22T01:54:44.403Z,18.33
2023-05-22T01:55:44.399Z,18.28
2023-05-22T01:56:44.413Z,18.35
2023-05-22T01:57:44.391Z,18.38
2023-05-22T01:58:44.403Z,18.28
2023-05-22T01:59:44.394Z,18.34
2023-05-22T02:00:44.384Z,18.25
2023-05-22T02:01:44.436Z,18.26
2023-05-22T02:02:44.443Z,18.25
2023-05-22T02:03:44.425Z,18.23
2023-05-22T02:04:44.372Z,18.35
2023-05-22T02:05:44.361Z,18.23
2023-05-22T02:06:44.362Z,18.33
2023-05-22T02:07:44.359Z,18.31
2023-05-22T02:08:44.391Z,18.25
2023-05-22T02:09:44.347Z,18.26
2023-05-22T02:10:44.348Z,18.23
2023-05-22T02:11:44.337Z,18.22
2023-05-22T02:12:44.335Z,18.18
2023-05-22T02:13:44.329Z,18.15
2023-05-22T02:14:44.325Z,18.08
2023-05-22T02:15:44.361Z,18.10
2023-05-22T02:16:44.316Z,18.19
2023-05-22T02:17:44.336Z,18.11
2023-05-22T02:18:44.355Z,18.10
2023-05-22T02:19:44.305Z,18.10
2023-05-22T02:20:44.304Z,18.10
2023-05-22T02:21:44.301Z,18.07
2023-05-22T02:22:44.314Z,17.97
2023-05-22T02:23:44.292Z,17.98
2023-05-22T02:24:44.289Z,17.89
2023-05-22T02:25:44.291Z,17.90
2023-05-22T02:26:44.284Z,17.92
2023-05-22T02:27:44.275Z,17.89
2023-05-22T02:28:44.274Z,17.89
2023-05-22T02:29:44.275Z,17.87
2023-05-22T02:30:44.266Z,17.80
2023-05-22T02:31:44.296Z,17.74
2023-05-22T02:32:44.322Z,17.70
2023-05-22T02:33:44.250Z,17.67
2023-05-22T02:34:44.246Z,17.67
2023-05-22T02:35:44.247Z,17.54
2023-05-22T02:36:44.251Z,17.65
2023-05-22T02:37:44.254Z,17.52
2023-05-22T02:38:44.232Z,17.57
2023-05-22T02:39:44.234Z,17.48
2023-05-22T02:40:44.228Z,17.45
2023-05-22T02:41:44.219Z,17.46
2023-05-22T02:42:44.220Z,17.48
2023-05-22T02:43:44.260Z,17.44
2023-05-22T02:44:44.209Z,17.46
2023-05-22T02:45:44.201Z,17.46
2023-05-22T02:46:44.228Z,17.56
2023-05-22T02:47:44.222Z,17.56
2023-05-22T02:48:44.190Z,17.59
2023-05-22T02:49:44.189Z,17.45
2023-05-22T02:50:44.214Z,17.46
2023-05-22T02:51:44.202Z,17.46
2023-05-22T02:52:44.177Z,17.34
2023-05-22T02:53:44.189Z,17.36
2023-05-22T02:54:44.174Z,17.36
2023-05-22T02:55:44.165Z,17.42
2023-05-22T02:56:44.157Z,17.31
2023-05-22T02:57:44.154Z,17.33
2023-05-22T02:58:44.149Z,17.29
2023-05-22T02:59:44.144Z,17.29
2023-05-22T03:00:44.139Z,17.24
2023-05-22T03:01:44.178Z,17.24
2023-05-22T03:02:44.201Z,17.36
2023-05-22T03:03:44.246Z,17.38
2023-05-22T03:04:44.123Z,17.44
2023-05-22T03:05:44.121Z,17.46
2023-05-22T03:06:44.114Z,17.48
2023-05-22T03:07:45.932Z,17.42
2023-05-22T03:08:44.106Z,17.39
2023-05-22T03:09:44.102Z,17.36
2023-05-22T03:10:44.100Z,17.30
2023-05-22T03:11:44.097Z,17.26
2023-05-22T03:12:44.093Z,17.19
2023-05-22T03:13:44.093Z,17.19
2023-05-22T03:14:44.080Z,17.12
2023-05-22T03:15:44.078Z,17.06
2023-05-22T03:16:44.200Z,17.22
2023-05-22T03:17:44.101Z,17.11
2023-05-22T03:18:44.097Z,17.11
2023-05-22T03:19:44.060Z,17.15
2023-05-22T03:20:44.063Z,17.06
2023-05-22T03:21:44.061Z,17.02
2023-05-22T03:22:44.053Z,17.12
2023-05-22T03:23:44.056Z,16.99
2023-05-22T03:24:44.041Z,17.02
2023-05-22T03:25:44.040Z,16.93
2023-05-22T03:26:44.116Z,16.90
2023-05-22T03:27:44.035Z,16.86
2023-05-22T03:28:44.051Z,16.87
2023-05-22T03:29:44.018Z,16.86
2023-05-22T03:30:44.021Z,16.87
2023-05-22T03:31:44.010Z,16.81
2023-05-22T03:32:44.063Z,16.78
2023-05-22T03:33:44.035Z,16.71
2023-05-22T03:34:44.068Z,16.75
2023-05-22T03:35:43.993Z,16.72
2023-05-22T03:36:43.992Z,16.71
2023-05-22T03:37:43.986Z,16.72
2023-05-22T03:38:43.982Z,16.78
2023-05-22T03:39:43.978Z,16.66
2023-05-22T03:40:43.972Z,16.89
2023-05-22T03:41:44.016Z,16.86
2023-05-22T03:42:43.964Z,16.93
2023-05-22T03:43:44.978Z,16.94
2023-05-22T03:44:43.958Z,16.91
2023-05-22T03:45:43.996Z,16.93
2023-05-22T03:46:43.951Z,16.97
2023-05-22T03:47:43.954Z,16.90
2023-05-22T03:48:43.943Z,16.89
2023-05-22T03:49:43.937Z,16.87
2023-05-22T03:50:43.933Z,16.86
2023-05-22T03:51:43.928Z,16.90
2023-05-22T03:52:43.929Z,16.87
2023-05-22T03:53:43.918Z,16.90
2023-05-22T03:54:43.918Z,16.96
2023-05-22T03:55:43.909Z,16.99
2023-05-22T03:56:43.905Z,16.94
2023-05-22T03:57:43.901Z,17.02
2023-05-22T03:58:43.898Z,17.11
2023-05-22T03:59:43.899Z,17.08
2023-05-22T04:00:43.890Z,17.06
2023-05-22T04:01:43.896Z,17.16
2023-05-22T04:02:43.991Z,17.14
2023-05-22T04:03:43.933Z,17.24
2023-05-22T04:04:43.905Z,17.36
2023-05-22T04:05:43.873Z,17.36
2023-05-22T04:06:43.861Z,17.30
2023-05-22T04:07:43.857Z,17.26
2023-05-22T04:08:43.855Z,17.33
2023-05-22T04:09:43.856Z,17.34
2023-05-22T04:10:43.842Z,17.41
2023-05-22T04:11:43.836Z,17.46
2023-05-22T04:12:43.837Z,17.68
2023-05-22T04:13:43.835Z,17.65
2023-05-22T04:14:43.831Z,17.59
2023-05-22T04:15:43.843Z,17.72
2023-05-22T04:16:43.818Z,17.83
2023-05-22T04:17:43.876Z,17.74
2023-05-22T04:18:43.855Z,17.85
2023-05-22T04:19:43.808Z,17.85
2023-05-22T04:20:43.822Z,17.92
2023-05-22T04:21:43.793Z,18.00
2023-05-22T04:22:43.807Z,18.10
2023-05-22T04:23:43.799Z,18.03
2023-05-22T04:24:43.785Z,17.95
2023-05-22T04:25:43.781Z,18.00
2023-05-22T04:26:43.778Z,18.03
2023-05-22T04:27:43.768Z,18.00
2023-05-22T04:28:43.768Z,18.10
2023-05-22T04:29:43.764Z,18.04
2023-05-22T04:30:43.762Z,18.07
2023-05-22T04:31:43.777Z,18.08
2023-05-22T04:32:43.803Z,18.10
2023-05-22T04:33:43.748Z,17.95
2023-05-22T04:34:43.748Z,18.00
2023-05-22T04:35:43.741Z,17.98
2023-05-22T04:36:43.734Z,17.92
2023-05-22T04:37:43.733Z,17.94
2023-05-22T04:38:43.738Z,17.98
2023-05-22T04:39:43.901Z,18.01
2023-05-22T04:40:43.728Z,18.03
2023-05-22T04:41:43.717Z,18.08
2023-05-22T04:42:43.713Z,18.23
2023-05-22T04:43:43.710Z,18.07
2023-05-22T04:44:43.770Z,18.03
2023-05-22T04:45:43.951Z,18.03
2023-05-22T04:46:43.806Z,18.11
2023-05-22T04:47:43.749Z,18.11
2023-05-22T04:48:43.695Z,18.26
2023-05-22T04:49:43.742Z,18.34
2023-05-22T04:50:43.718Z,18.38
2023-05-22T04:51:43.679Z,18.37
2023-05-22T04:52:43.679Z,18.23
2023-05-22T04:53:43.736Z,18.44
2023-05-22T04:54:43.671Z,18.78
2023-05-22T04:55:43.679Z,18.81
2023-05-22T04:56:43.665Z,18.92
2023-05-22T04:57:43.660Z,19.11
2023-05-22T04:58:43.653Z,19.00
2023-05-22T04:59:43.654Z,18.81
2023-05-22T05:00:43.774Z,18.83
2023-05-22T05:01:43.710Z,18.58
2023-05-22T05:02:43.711Z,18.53
2023-05-22T05:03:43.653Z,18.40
2023-05-22T05:04:43.639Z,18.41
2023-05-22T05:05:43.632Z,18.52
2023-05-22T05:06:43.630Z,18.47
2023-05-22T05:07:43.620Z,18.80
2023-05-22T05:08:43.620Z,18.81
2023-05-22T05:09:43.618Z,18.81
2023-05-22T05:10:43.632Z,18.70
2023-05-22T05:11:43.612Z,18.65
2023-05-22T05:12:43.608Z,18.73
2023-05-22T05:13:43.604Z,18.96
2023-05-22T05:14:43.600Z,18.83
2023-05-22T05:15:43.599Z,18.92
2023-05-22T05:16:43.646Z,18.86
2023-05-22T05:17:43.728Z,18.89
2023-05-22T05:18:43.713Z,18.89
2023-05-22T05:19:43.581Z,18.93
2023-05-22T05:20:43.579Z,18.86
2023-05-22T05:21:43.579Z,18.71
2023-05-22T05:22:43.576Z,18.59
2023-05-22T05:23:43.572Z,18.43
2023-05-22T05:24:43.565Z,18.66
2023-05-22T05:25:43.563Z,18.71
2023-05-22T05:26:43.562Z,18.71
2023-05-22T05:27:43.558Z,18.71
2023-05-22T05:28:43.570Z,18.53
2023-05-22T05:29:43.559Z,18.78
2023-05-22T05:30:43.553Z,18.88
2023-05-22T05:31:43.610Z,19.18
2023-05-22T05:32:43.602Z,19.21
2023-05-22T05:33:43.561Z,19.11
2023-05-22T05:34:43.543Z,19.11
2023-05-22T05:35:43.536Z,19.27
2023-05-22T05:36:43.539Z,19.40
2023-05-22T05:37:43.536Z,19.40
2023-05-22T05:38:43.529Z,19.48
2023-05-22T05:39:43.526Z,19.51
2023-05-22T05:40:43.520Z,19.63
2023-05-22T05:41:43.521Z,19.89
2023-05-22T05:42:43.518Z,19.84
2023-05-22T05:43:43.516Z,19.85
2023-05-22T05:44:43.511Z,20.32
2023-05-22T05:45:43.550Z,20.25
2023-05-22T05:46:43.611Z,20.24
2023-05-22T05:47:43.593Z,20.28
2023-05-22T05:48:43.507Z,20.34
2023-05-22T05:49:43.507Z,20.28
2023-05-22T05:50:43.512Z,20.40
2023-05-22T05:51:43.499Z,19.99
2023-05-22T05:52:43.495Z,20.25
2023-05-22T05:53:43.495Z,20.31
2023-05-22T05:54:43.492Z,20.21
2023-05-22T05:55:43.488Z,20.11
2023-05-22T05:56:43.487Z,20.10
2023-05-22T05:57:43.485Z,20.21
2023-05-22T05:58:43.497Z,20.07
2023-05-22T05:59:43.486Z,20.18
2023-05-22T06:00:43.483Z,20.24
2023-05-22T06:01:43.479Z,20.11
2023-05-22T06:02:43.592Z,19.86
2023-05-22T06:03:43.611Z,19.77
2023-05-22T06:04:43.474Z,19.33
2023-05-22T06:05:43.540Z,19.36
2023-05-22T06:06:43.469Z,19.27
2023-05-22T06:07:43.480Z,19.19
2023-05-22T06:08:43.465Z,19.24
2023-05-22T06:09:43.465Z,19.36
2023-05-22T06:10:43.476Z,19.52
2023-05-22T06:11:43.460Z,19.67
2023-05-22T06:12:43.464Z,19.59
2023-05-22T06:13:43.468Z,19.44
2023-05-22T06:14:43.459Z,19.40
2023-05-22T06:15:43.455Z,19.29
2023-05-22T06:16:44.074Z,19.19
2023-05-22T06:17:43.503Z,19.18
2023-05-22T06:18:43.459Z,19.24
2023-05-22T06:19:43.451Z,19.31
2023-05-22T06:20:43.448Z,19.37
2023-05-22T06:21:43.441Z,19.59
2023-05-22T06:22:43.439Z,19.45
2023-05-22T06:23:43.438Z,19.30
2023-05-22T06:24:43.433Z,19.39
2023-05-22T06:25:43.432Z,19.45
2023-05-22T06:26:43.430Z,19.47
2023-05-22T06:27:43.443Z,19.47
2023-05-22T06:28:43.428Z,19.62
2023-05-22T06:29:43.425Z,19.84
2023-05-22T06:30:43.523Z,20.13
2023-05-22T06:31:43.665Z,20.37
2023-05-22T06:32:43.583Z,20.43
2023-05-22T06:33:43.682Z,20.41
2023-05-22T06:34:43.414Z,20.36
2023-05-22T06:35:43.414Z,20.32
2023-05-22T06:36:43.412Z,20.19
2023-05-22T06:37:43.479Z,20.25
2023-05-22T06:38:43.421Z,20.55
2023-05-22T06:39:43.410Z,20.56
2023-05-22T06:40:43.402Z,20.48
2023-05-22T06:41:43.401Z,20.51
2023-05-22T06:42:43.401Z,20.80
2023-05-22T06:43:43.394Z,20.97
2023-05-22T06:44:43.399Z,21.15
2023-05-22T06:45:43.474Z,21.07
2023-05-22T06:46:43.400Z,21.39
2023-05-22T06:47:43.420Z,21.72
2023-05-22T06:48:43.392Z,22.07
2023-05-22T06:49:43.402Z,21.85
2023-05-22T06:50:43.398Z,21.92
2023-05-22T06:51:43.395Z,21.80
2023-05-22T06:52:43.389Z,21.67
2023-05-22T06:53:43.405Z,21.85
2023-05-22T06:54:43.414Z,21.61
2023-05-22T06:55:43.399Z,21.29
2023-05-22T06:56:43.400Z,20.95
2023-05-22T06:57:43.392Z,20.69
2023-05-22T06:58:43.387Z,20.80
2023-05-22T06:59:43.389Z,20.90
2023-05-22T07:00:43.383Z,20.78
2023-05-22T07:01:43.450Z,21.18
2023-05-22T07:02:43.547Z,21.51
2023-05-22T07:03:43.390Z,21.67
2023-05-22T07:04:43.393Z,21.96
2023-05-22T07:05:43.439Z,22.43
2023-05-22T07:06:43.386Z,22.30
2023-05-22T07:07:43.381Z,21.96
2023-05-22T07:08:43.383Z,21.54
2023-05-22T07:09:43.550Z,21.21
2023-05-22T07:10:43.390Z,21.18
2023-05-22T07:11:43.381Z,21.05
2023-05-22T07:12:43.391Z,21.48
2023-05-22T07:13:43.388Z,21.45
2023-05-22T07:14:43.381Z,21.50
2023-05-22T07:15:45.123Z,21.50
2023-05-22T07:16:43.419Z,21.62
2023-05-22T07:17:43.469Z,21.64
2023-05-22T07:18:43.384Z,21.69
2023-05-22T07:19:43.386Z,22.00
2023-05-22T07:20:43.381Z,22.00
2023-05-22T07:21:43.381Z,22.00
2023-05-22T07:22:43.382Z,21.93
2023-05-22T07:23:43.382Z,22.10
2023-05-22T07:24:43.389Z,22.26
2023-05-22T07:25:43.417Z,22.32
2023-05-22T07:26:43.380Z,22.20
2023-05-22T07:27:43.378Z,22.38
2023-05-22T07:28:43.385Z,22.28
2023-05-22T07:29:43.397Z,22.10
2023-05-22T07:30:43.389Z,22.08
2023-05-22T07:31:43.424Z,22.29
2023-05-22T07:32:43.405Z,22.29
2023-05-22T07:33:43.386Z,22.69
2023-05-22T07:34:43.390Z,22.85
2023-05-22T07:35:43.388Z,22.63
2023-05-22T07:36:43.419Z,22.57
2023-05-22T07:37:43.391Z,22.55
2023-05-22T07:38:43.389Z,22.73
2023-05-22T07:39:43.393Z,22.94
2023-05-22T07:40:43.396Z,22.83
2023-05-22T07:41:43.557Z,22.90
2023-05-22T07:42:43.400Z,22.88
2023-05-22T07:43:43.398Z,22.60
2023-05-22T07:44:43.402Z,22.80
2023-05-22T07:45:43.452Z,23.24
2023-05-22T07:46:43.527Z,23.47
2023-05-22T07:47:43.440Z,23.76
2023-05-22T07:48:43.407Z,23.83
2023-05-22T07:49:43.426Z,23.71
2023-05-22T07:50:43.411Z,23.96
2023-05-22T07:51:43.406Z,23.80
2023-05-22T07:52:43.408Z,23.88
2023-05-22T07:53:43.414Z,23.96
2023-05-22T07:54:45.199Z,23.66
2023-05-22T07:55:43.437Z,23.69
2023-05-22T07:56:43.417Z,23.78
2023-05-22T07:57:43.532Z,23.61
2023-05-22T07:58:43.422Z,23.62
2023-05-22T07:59:43.426Z,23.69
2023-05-22T08:00:43.432Z,23.81
2023-05-22T08:01:43.429Z,23.68
2023-05-22T08:02:43.644Z,23.77
2023-05-22T08:03:43.567Z,23.83
2023-05-22T08:04:43.451Z,23.96
2023-05-22T08:05:43.438Z,24.24
2023-05-22T08:06:43.445Z,24.29
2023-05-22T08:07:43.443Z,23.34
2023-05-22T08:08:43.450Z,23.46
2023-05-22T08:09:43.447Z,23.61
2023-05-22T08:10:58.109Z,23.59
2023-05-22T08:11:43.451Z,23.40
2023-05-22T08:12:43.464Z,23.71
2023-05-22T08:13:43.496Z,24.21
2023-05-22T08:14:43.460Z,24.36
2023-05-22T08:15:43.465Z,24.55
2023-05-22T08:16:43.478Z,24.76
2023-05-22T08:17:43.501Z,25.17
2023-05-22T08:18:43.477Z,25.51
2023-05-22T08:19:43.547Z,25.06
2023-05-22T08:20:43.471Z,24.47
2023-05-22T08:21:43.475Z,23.99
2023-05-22T08:22:43.481Z,23.74
2023-05-22T08:23:43.476Z,23.76
2023-05-22T08:24:43.491Z,23.92
2023-05-22T08:25:43.485Z,24.03
2023-05-22T08:26:43.551Z,24.01
2023-05-22T08:27:43.490Z,23.77
2023-05-22T08:28:43.527Z,23.71
2023-05-22T08:29:43.495Z,23.91
2023-05-22T08:30:43.488Z,23.80
2023-05-22T08:31:43.595Z,23.69
2023-05-22T08:32:43.536Z,23.73
2023-05-22T08:33:43.496Z,24.03
2023-05-22T08:34:43.498Z,24.01
2023-05-22T08:35:43.496Z,24.24
2023-05-22T08:36:43.501Z,24.21
2023-05-22T08:37:43.498Z,24.11
2023-05-22T08:38:43.499Z,23.77
2023-05-22T08:39:43.503Z,23.56
2023-05-22T08:40:46.210Z,23.48
2023-05-22T08:41:43.504Z,23.59
2023-05-22T08:42:43.512Z,23.66
2023-05-22T08:43:43.512Z,23.81
2023-05-22T08:44:43.505Z,23.96
2023-05-22T08:45:43.593Z,24.10
2023-05-22T08:46:43.535Z,24.24
2023-05-22T08:47:43.549Z,24.29
2023-05-22T08:48:43.513Z,23.95
2023-05-22T08:49:43.512Z,23.71
2023-05-22T08:50:43.520Z,23.47
2023-05-22T08:51:43.511Z,23.32
2023-05-22T08:52:43.511Z,23.51
2023-05-22T08:53:43.589Z,23.59
2023-05-22T08:54:43.512Z,23.48
2023-05-22T08:55:43.519Z,23.56
2023-05-22T08:56:55.755Z,23.32
2023-05-22T08:57:43.519Z,23.37
2023-05-22T08:58:43.518Z,23.63
2023-05-22T08:59:43.518Z,23.87
2023-05-22T09:00:43.596Z,24.13
2023-05-22T09:01:43.852Z,24.20
2023-05-22T09:02:43.537Z,24.24
2023-05-22T09:03:43.573Z,24.32
2023-05-22T09:04:43.524Z,24.38
2023-05-22T09:05:43.528Z,24.28
2023-05-22T09:06:43.536Z,24.02
2023-05-22T09:07:43.529Z,24.16
2023-05-22T09:08:43.530Z,24.36
2023-05-22T09:09:43.544Z,24.57
2023-05-22T09:10:43.531Z,24.61
2023-05-22T09:11:43.526Z,24.35
2023-05-22T09:12:43.537Z,24.23
2023-05-22T09:13:43.586Z,23.99
2023-05-22T09:14:43.534Z,23.99
2023-05-22T09:15:43.537Z,24.06
2023-05-22T09:16:43.576Z,24.14
2023-05-22T09:17:43.595Z,24.08
2023-05-22T09:18:43.538Z,23.84
2023-05-22T09:19:43.571Z,23.92
2023-05-22T09:20:43.581Z,23.91
2023-05-22T09:21:43.558Z,23.88
2023-05-22T09:22:43.547Z,23.99
2023-05-22T09:23:43.558Z,24.10
2023-05-22T09:24:43.533Z,24.23
2023-05-22T09:25:43.538Z,24.24
2023-05-22T09:26:43.543Z,24.08
2023-05-22T09:27:43.544Z,23.93
2023-05-22T09:28:43.544Z,23.96
2023-05-22T09:29:43.542Z,23.86
2023-05-22T09:30:43.762Z,23.91
2023-05-22T09:31:43.901Z,24.05
2023-05-22T09:32:43.598Z,24.23
2023-05-22T09:33:43.550Z,24.29
2023-05-22T09:34:43.550Z,24.39
2023-05-22T09:35:43.546Z,24.45
2023-05-22T09:36:43.546Z,24.32
2023-05-22T09:37:43.562Z,24.05
2023-05-22T09:38:43.551Z,23.96
2023-05-22T09:39:43.560Z,24.14
2023-05-22T09:40:43.551Z,23.91
2023-05-22T09:41:43.551Z,24.10
2023-05-22T09:42:43.553Z,24.18
2023-05-22T09:43:43.557Z,24.29
2023-05-22T09:44:43.551Z,24.17
2023-05-22T09:45:43.554Z,24.24
2023-05-22T09:46:43.681Z,24.32
2023-05-22T09:47:43.585Z,24.66
2023-05-22T09:48:43.553Z,24.36
2023-05-22T09:49:43.553Z,24.68
2023-05-22T09:50:43.556Z,24.78
2023-05-22T09:51:43.553Z,24.74
2023-05-22T09:52:43.560Z,24.61
2023-05-22T09:53:43.557Z,24.30
2023-05-22T09:54:43.560Z,24.30
2023-05-22T09:55:43.556Z,24.20
2023-05-22T09:56:43.569Z,24.28
2023-05-22T09:57:43.559Z,24.42
2023-05-22T09:58:43.559Z,24.35
2023-05-22T09:59:43.562Z,24.16
2023-05-22T10:00:43.560Z,24.16
2023-05-22T10:01:43.586Z,24.24
2023-05-22T10:02:43.583Z,24.21
2023-05-22T10:03:43.560Z,24.20
2023-05-22T10:04:43.622Z,24.42
2023-05-22T10:05:43.669Z,24.38
2023-05-22T10:06:43.561Z,24.40
2023-05-22T10:07:43.564Z,24.60
2023-05-22T10:08:43.564Z,24.51
2023-05-22T10:09:43.560Z,24.48
2023-05-22T10:10:43.588Z,24.66
2023-05-22T10:11:43.564Z,24.70
2023-05-22T10:12:43.593Z,24.73
2023-05-22T10:13:43.563Z,24.66
2023-05-22T10:14:43.566Z,24.66
2023-05-22T10:15:43.596Z,24.66
2023-05-22T10:16:43.607Z,24.48
2023-05-22T10:17:43.579Z,24.39
2023-05-22T10:18:43.571Z,24.29
2023-05-22T10:19:44.686Z,24.29
2023-05-22T10:20:43.569Z,24.40
2023-05-22T10:21:43.669Z,24.55
2023-05-22T10:22:43.572Z,24.36
2023-05-22T10:23:43.570Z,24.33
2023-05-22T10:24:43.576Z,24.50
2023-05-22T10:25:43.572Z,24.45
2023-05-22T10:26:43.569Z,24.35
2023-05-22T10:27:43.572Z,24.53
2023-05-22T10:28:43.574Z,24.74
2023-05-22T10:29:43.570Z,24.93
2023-05-22T10:30:43.659Z,25.03
2023-05-22T10:31:43.573Z,25.17
2023-05-22T10:32:43.589Z,25.35
2023-05-22T10:33:43.606Z,25.43
2023-05-22T10:34:43.608Z,25.43
2023-05-22T10:35:43.596Z,25.35
2023-05-22T10:36:43.725Z,25.43
2023-05-22T10:37:43.657Z,25.43
2023-05-22T10:38:43.570Z,25.28
2023-05-22T10:39:43.681Z,24.89
2023-05-22T10:40:43.644Z,24.80
2023-05-22T10:41:43.574Z,24.77
2023-05-22T10:42:43.581Z,24.85
2023-05-22T10:43:43.575Z,24.99
2023-05-22T10:44:43.581Z,25.03
2023-05-22T10:45:45.280Z,24.96
2023-05-22T10:46:43.586Z,24.99
2023-05-22T10:47:43.583Z,25.07
2023-05-22T10:48:43.578Z,25.11
2023-05-22T10:49:43.687Z,25.14
2023-05-22T10:50:43.580Z,25.23
2023-05-22T10:51:43.579Z,25.26
2023-05-22T10:52:43.581Z,25.01
2023-05-22T10:53:43.671Z,24.81
2023-05-22T10:54:43.587Z,24.58
2023-05-22T10:55:43.583Z,24.47
2023-05-22T10:56:43.584Z,24.50
2023-05-22T10:57:43.584Z,24.61
2023-05-22T10:58:43.589Z,24.66
2023-05-22T10:59:43.592Z,24.73
2023-05-22T11:00:43.585Z,24.81
2023-05-22T11:01:43.603Z,24.81
2023-05-22T11:02:43.712Z,24.76
2023-05-22T11:03:43.653Z,24.74
2023-05-22T11:04:43.610Z,24.73
2023-05-22T11:05:43.588Z,24.70
2023-05-22T11:06:43.620Z,24.80
2023-05-22T11:07:43.598Z,25.07
2023-05-22T11:08:43.591Z,25.08
2023-05-22T11:09:43.683Z,25.32
2023-05-22T11:10:43.586Z,25.48
2023-05-22T11:11:43.591Z,25.50
2023-05-22T11:12:43.593Z,25.31
2023-05-22T11:13:43.607Z,25.06
2023-05-22T11:14:43.594Z,25.07
2023-05-22T11:15:43.598Z,24.99
2023-05-22T11:16:43.736Z,25.08
2023-05-22T11:17:43.654Z,25.03
2023-05-22T11:18:45.214Z,25.03
2023-05-22T11:19:43.615Z,25.06
2023-05-22T11:20:43.602Z,25.06
2023-05-22T11:21:43.598Z,25.03
2023-05-22T11:22:43.596Z,25.07
2023-05-22T11:23:43.601Z,25.11
2023-05-22T11:24:43.597Z,25.03
2023-05-22T11:25:43.683Z,25.06
2023-05-22T11:26:43.599Z,25.07
2023-05-22T11:27:43.605Z,25.03
2023-05-22T11:28:43.598Z,25.13
2023-05-22T11:29:43.600Z,25.33
2023-05-22T11:30:43.624Z,25.08
2023-05-22T11:31:43.677Z,25.18
2023-05-22T11:32:43.612Z,25.26
2023-05-22T11:33:43.604Z,25.43
2023-05-22T11:34:43.601Z,25.40
2023-05-22T11:35:43.603Z,25.23
2023-05-22T11:36:43.607Z,25.16
2023-05-22T11:37:43.616Z,24.99
2023-05-22T11:38:43.606Z,25.13
2023-05-22T11:39:43.605Z,25.07
2023-05-22T11:40:43.615Z,25.18
2023-05-22T11:41:43.690Z,25.17
2023-05-22T11:42:43.630Z,25.26
2023-05-22T11:43:43.608Z,25.28
2023-05-22T11:44:43.607Z,25.36
2023-05-22T11:45:43.618Z,25.55
2023-05-22T11:46:43.640Z,25.59
2023-05-22T11:47:43.688Z,25.47
2023-05-22T11:48:43.644Z,25.43
2023-05-22T11:49:43.609Z,25.48
2023-05-22T11:50:43.919Z,25.33
2023-05-22T11:51:43.611Z,25.40
2023-05-22T11:52:43.630Z,25.41
2023-05-22T11:53:43.609Z,25.54
2023-05-22T11:54:43.622Z,25.53
2023-05-22T11:55:43.610Z,25.58
2023-05-22T11:57:43.702Z,25.54
2023-05-22T11:58:43.603Z,25.55
2023-05-22T11:59:43.610Z,25.87
2023-05-22T12:00:43.665Z,25.77
2023-05-22T12:01:43.623Z,25.68
2023-05-22T12:02:43.667Z,25.88
2023-05-22T12:03:43.660Z,26.07
2023-05-22T12:04:43.613Z,26.15
2023-05-22T12:05:43.611Z,26.43
2023-05-22T12:06:43.671Z,26.65
2023-05-22T12:07:43.625Z,26.53
2023-05-22T12:08:43.606Z,26.23
2023-05-22T12:09:43.612Z,26.19
2023-05-22T12:10:43.611Z,26.23
2023-05-22T12:11:43.614Z,25.95
2023-05-22T12:12:43.630Z,25.96
2023-05-22T12:13:43.612Z,25.93
2023-05-22T12:14:43.614Z,25.87
2023-05-22T12:15:43.689Z,25.87
2023-05-22T12:16:43.624Z,25.83
2023-05-22T12:17:43.687Z,26.09
2023-05-22T12:18:43.620Z,26.10
2023-05-22T12:19:43.615Z,26.09
2023-05-22T12:20:43.616Z,26.00
2023-05-22T12:21:43.618Z,26.02
2023-05-22T12:22:43.718Z,25.87
2023-05-22T12:23:43.622Z,25.95
2023-05-22T12:24:43.618Z,25.98
2023-05-22T12:25:43.626Z,25.98
2023-05-22T12:26:43.673Z,26.10
2023-05-22T12:27:43.636Z,26.09
2023-05-22T12:28:43.625Z,26.26
2023-05-22T12:29:43.739Z,26.13
2023-05-22T12:30:43.633Z,25.72
2023-05-22T12:31:43.633Z,25.72
2023-05-22T12:32:43.640Z,26.03
2023-05-22T12:33:43.632Z,26.22
2023-05-22T12:34:43.632Z,26.07
2023-05-22T12:35:43.629Z,25.90
2023-05-22T12:36:43.638Z,25.70
2023-05-22T12:37:43.634Z,25.80
2023-05-22T12:38:43.652Z,25.78
2023-05-22T12:39:43.636Z,25.60
2023-05-22T12:40:43.641Z,25.69
2023-05-22T12:41:43.653Z,25.80
2023-05-22T12:42:43.639Z,26.02
2023-05-22T12:43:43.639Z,26.10
2023-05-22T12:44:43.690Z,26.06
2023-05-22T12:45:43.745Z,26.06
2023-05-22T12:46:43.669Z,26.26
2023-05-22T12:47:43.717Z,26.34
2023-05-22T12:48:43.644Z,26.36
2023-05-22T12:49:43.652Z,26.56
2023-05-22T12:50:43.650Z,26.62
2023-05-22T12:51:43.648Z,26.52
2023-05-22T12:52:43.653Z,26.34
2023-05-22T12:53:43.647Z,26.18